createdAt,value
2018-05-31T00:00:18.722Z,76.86
2018-05-31T00:02:47.192Z,77.52
2018-05-31T00:05:15.620Z,79.05
2018-05-31T00:07:44.050Z,78.11
2018-05-31T00:10:12.545Z,79.09
2018-05-31T00:12:40.975Z,78.24
2018-05-31T00:15:09.391Z,77.48
2018-05-31T00:17:37.856Z,77.39
2018-05-31T00:20:06.293Z,77.10
2018-05-31T00:22:34.748Z,78.48
2018-05-31T00:25:03.229Z,78.00
2018-05-31T00:27:31.663Z,77.68
2018-05-31T00:30:00.093Z,77.38
2018-05-31T00:32:28.566Z,77.21
2018-05-31T00:34:57.021Z,77.08
2018-05-31T00:37:25.448Z,76.83
2018-05-31T00:39:53.938Z,77.07
2018-05-31T00:42:22.360Z,77.44
2018-05-31T00:44:50.780Z,77.29
2018-05-31T00:47:19.273Z,77.09
2018-05-31T00:49:47.710Z,77.02
2018-05-31T00:52:16.143Z,77.01
2018-05-31T00:54:44.633Z,78.62
2018-05-31T00:57:13.061Z,79.46
2018-05-31T00:59:41.504Z,80.34
2018-05-31T01:02:09.980Z,80.64
2018-05-31T01:04:38.431Z,79.49
2018-05-31T01:07:06.897Z,79.87
2018-05-31T01:09:35.373Z,79.06
2018-05-31T01:12:03.808Z,78.65
2018-05-31T01:14:32.245Z,79.85
2018-05-31T01:17:00.715Z,80.43
2018-05-31T01:19:29.153Z,80.42
2018-05-31T01:21:57.599Z,79.52
2018-05-31T01:24:26.080Z,79.14
2018-05-31T01:26:54.517Z,78.69
2018-05-31T01:29:22.961Z,78.58
2018-05-31T01:31:51.428Z,78.55
2018-05-31T01:34:19.868Z,78.33
2018-05-31T01:36:48.320Z,78.28
2018-05-31T01:39:17.765Z,79.25
2018-05-31T01:41:46.212Z,78.95
2018-05-31T01:44:14.656Z,78.89
2018-05-31T01:46:43.139Z,78.46
2018-05-31T01:49:11.582Z,80.39
2018-05-31T01:51:40.045Z,81.02
2018-05-31T01:54:08.517Z,79.71
2018-05-31T01:56:36.964Z,79.75
2018-05-31T01:59:05.424Z,79.65
2018-05-31T02:01:33.920Z,79.66
2018-05-31T02:04:02.369Z,80.03
2018-05-31T02:06:30.805Z,80.26
2018-05-31T02:08:59.288Z,80.49
2018-05-31T02:11:27.749Z,79.87
2018-05-31T02:13:56.204Z,79.53
2018-05-31T02:16:24.702Z,79.70
2018-05-31T02:18:53.147Z,79.58
2018-05-31T02:21:21.597Z,80.20
2018-05-31T02:23:50.112Z,81.75
2018-05-31T02:26:18.542Z,81.70
2018-05-31T02:28:46.980Z,80.97
2018-05-31T02:31:15.468Z,80.51
2018-05-31T02:33:43.921Z,80.25
2018-05-31T02:36:12.388Z,79.93
2018-05-31T02:38:40.881Z,80.81
2018-05-31T02:41:09.324Z,81.56
2018-05-31T02:43:37.762Z,81.59
2018-05-31T02:46:06.241Z,80.75
2018-05-31T02:48:34.707Z,80.31
2018-05-31T02:51:03.148Z,80.56
2018-05-31T02:53:31.628Z,80.28
2018-05-31T02:56:00.069Z,80.31
2018-05-31T02:58:28.504Z,80.19
2018-05-31T03:00:57.016Z,80.13
2018-05-31T03:03:25.445Z,80.40
2018-05-31T03:05:53.884Z,80.60
2018-05-31T03:08:22.356Z,80.59
2018-05-31T03:10:50.810Z,80.75
2018-05-31T03:13:19.278Z,80.43
2018-05-31T03:15:47.778Z,80.60
2018-05-31T03:18:16.209Z,80.75
2018-05-31T03:20:44.639Z,80.73
2018-05-31T03:23:13.121Z,80.55
2018-05-31T03:25:41.573Z,81.06
2018-05-31T03:28:10.008Z,80.67
2018-05-31T03:30:38.529Z,80.17
2018-05-31T03:33:06.975Z,80.04
2018-05-31T03:35:35.418Z,80.35
2018-05-31T03:38:03.912Z,81.30
2018-05-31T03:40:32.377Z,81.48
2018-05-31T03:43:00.810Z,80.77
2018-05-31T03:45:29.294Z,80.48
2018-05-31T03:47:57.732Z,80.96
2018-05-31T03:50:26.568Z,80.45
2018-05-31T03:52:55.064Z,80.61
2018-05-31T03:55:23.501Z,80.33
2018-05-31T03:57:51.946Z,80.30
2018-05-31T04:00:20.429Z,80.32
2018-05-31T04:02:48.880Z,79.96
2018-05-31T04:05:17.335Z,80.31
2018-05-31T04:07:45.827Z,80.50
2018-05-31T04:10:14.257Z,80.40
2018-05-31T04:12:42.703Z,81.41
2018-05-31T04:15:11.632Z,81.97
2018-05-31T04:17:40.103Z,82.38
2018-05-31T04:20:08.549Z,81.96
2018-05-31T04:22:37.024Z,82.41
2018-05-31T04:25:05.483Z,82.27
2018-05-31T04:27:33.937Z,82.99
2018-05-31T04:30:02.432Z,82.00
2018-05-31T04:32:30.873Z,81.05
2018-05-31T04:34:59.309Z,80.69
2018-05-31T04:37:27.784Z,80.08
2018-05-31T04:39:56.237Z,80.05
2018-05-31T04:42:24.693Z,79.69
2018-05-31T04:44:53.176Z,79.48
2018-05-31T04:47:21.619Z,79.77
2018-05-31T04:49:50.080Z,79.78
2018-05-31T04:52:18.577Z,79.13
2018-05-31T04:54:47.031Z,79.20
2018-05-31T04:57:15.492Z,78.80
2018-05-31T04:59:43.987Z,79.52
2018-05-31T05:02:12.437Z,79.61
2018-05-31T05:04:40.906Z,79.79
2018-05-31T05:07:09.388Z,79.59
2018-05-31T05:09:37.834Z,79.53
2018-05-31T05:12:06.315Z,79.78
2018-05-31T05:14:34.837Z,79.27
2018-05-31T05:17:03.305Z,79.37
2018-05-31T05:19:31.756Z,79.47
2018-05-31T05:22:00.262Z,79.32
2018-05-31T05:24:28.711Z,79.86
2018-05-31T05:26:57.156Z,79.32
2018-05-31T05:29:25.676Z,79.34
2018-05-31T05:31:54.116Z,78.02
2018-05-31T05:34:22.539Z,77.73
2018-05-31T05:36:51.038Z,78.95
2018-05-31T05:39:19.513Z,79.39
2018-05-31T05:41:47.976Z,78.47
2018-05-31T05:44:16.444Z,78.43
2018-05-31T05:46:44.884Z,76.89
2018-05-31T05:49:13.317Z,76.41
2018-05-31T05:51:41.821Z,75.93
2018-05-31T05:54:10.262Z,76.00
2018-05-31T05:56:38.705Z,76.10
2018-05-31T05:59:07.199Z,76.36
2018-05-31T06:01:35.647Z,75.17
2018-05-31T06:04:04.120Z,75.03
2018-05-31T06:06:32.621Z,74.24
2018-05-31T06:09:01.089Z,73.96
2018-05-31T06:11:29.517Z,73.63
2018-05-31T06:13:57.997Z,73.58
2018-05-31T06:16:26.420Z,73.18
2018-05-31T06:18:54.852Z,73.65
2018-05-31T06:21:23.312Z,71.78
2018-05-31T06:23:51.754Z,72.33
2018-05-31T06:26:20.234Z,72.00
2018-05-31T06:28:48.674Z,71.60
2018-05-31T06:31:17.116Z,71.15
2018-05-31T06:33:45.575Z,72.06
2018-05-31T06:36:14.066Z,72.03
2018-05-31T06:38:42.484Z,70.70
2018-05-31T06:41:10.921Z,71.16
2018-05-31T06:43:39.385Z,68.65
2018-05-31T06:46:07.799Z,70.08
2018-05-31T06:48:36.216Z,69.35
2018-05-31T06:51:04.701Z,68.48
2018-05-31T06:53:33.112Z,67.73
2018-05-31T06:56:01.524Z,68.42
2018-05-31T06:58:30.005Z,66.80
2018-05-31T07:00:58.421Z,67.66
2018-05-31T07:03:26.850Z,68.20
2018-05-31T07:05:55.341Z,68.01
2018-05-31T07:08:23.768Z,66.60
2018-05-31T07:10:52.220Z,66.70
2018-05-31T07:13:20.685Z,66.67
2018-05-31T07:15:49.196Z,63.97
2018-05-31T07:18:17.617Z,64.18
2018-05-31T07:20:46.068Z,64.81
2018-05-31T07:23:14.493Z,64.80
2018-05-31T07:25:42.923Z,64.19
2018-05-31T07:28:11.402Z,62.94
2018-05-31T07:30:39.832Z,62.22
2018-05-31T07:33:08.253Z,62.07
2018-05-31T07:35:36.708Z,60.37
2018-05-31T07:38:05.117Z,60.36
2018-05-31T07:40:33.577Z,58.38
2018-05-31T07:43:02.039Z,59.08
2018-05-31T07:45:30.448Z,58.03
2018-05-31T07:47:58.864Z,57.95
2018-05-31T07:50:27.317Z,57.56
2018-05-31T07:52:55.740Z,56.88
2018-05-31T07:55:24.162Z,57.59
2018-05-31T07:57:52.628Z,58.10
2018-05-31T08:00:21.036Z,58.49
2018-05-31T08:02:49.456Z,57.40
2018-05-31T08:05:17.919Z,56.48
2018-05-31T08:07:46.344Z,57.43
2018-05-31T08:10:14.774Z,57.01
2018-05-31T08:12:43.220Z,57.51
2018-05-31T08:15:11.627Z,57.69
2018-05-31T08:17:40.036Z,58.59
2018-05-31T08:20:08.521Z,58.47
2018-05-31T08:22:36.925Z,56.03
2018-05-31T08:25:05.333Z,58.06
2018-05-31T08:27:33.797Z,56.75
2018-05-31T08:30:02.232Z,56.96
2018-05-31T08:32:30.657Z,58.67
2018-05-31T08:34:59.217Z,60.05
2018-05-31T08:37:27.637Z,59.11
2018-05-31T08:39:56.073Z,60.24
2018-05-31T08:42:24.524Z,56.35
2018-05-31T08:44:52.929Z,56.24
2018-05-31T08:47:21.339Z,56.05
2018-05-31T08:49:49.784Z,53.67
2018-05-31T08:52:18.201Z,53.43
2018-05-31T08:54:46.608Z,53.90
2018-05-31T08:57:15.062Z,54.42
2018-05-31T08:59:43.472Z,54.42
2018-05-31T09:02:11.889Z,55.35
2018-05-31T09:04:40.361Z,52.07
2018-05-31T09:07:08.781Z,54.42
2018-05-31T09:09:37.200Z,54.86
2018-05-31T09:12:06.502Z,53.17
2018-05-31T09:14:34.930Z,52.81
2018-05-31T09:17:03.376Z,51.79
2018-05-31T09:19:31.844Z,53.45
2018-05-31T09:22:00.283Z,54.64
2018-05-31T09:24:28.730Z,54.61
2018-05-31T09:26:57.192Z,54.21
2018-05-31T09:29:25.645Z,54.19
2018-05-31T09:31:54.070Z,53.33
2018-05-31T09:34:22.520Z,51.02
2018-05-31T09:36:50.949Z,52.70
2018-05-31T09:39:19.372Z,52.05
2018-05-31T09:41:47.848Z,50.99
2018-05-31T09:44:16.256Z,51.10
2018-05-31T09:46:44.665Z,51.17
2018-05-31T09:49:13.120Z,48.41
2018-05-31T09:51:41.524Z,48.58
2018-05-31T09:54:09.932Z,48.68
2018-05-31T09:56:38.388Z,49.87
2018-05-31T09:59:06.820Z,48.28
2018-05-31T10:01:35.236Z,49.98
2018-05-31T10:04:03.689Z,49.52
2018-05-31T10:06:32.106Z,51.07
2018-05-31T10:09:00.526Z,48.53
2018-05-31T10:11:28.972Z,47.65
2018-05-31T10:13:57.384Z,46.17
2018-05-31T10:16:25.799Z,47.28
2018-05-31T10:18:54.257Z,48.90
2018-05-31T10:21:22.668Z,46.69
2018-05-31T10:23:51.068Z,45.24
2018-05-31T10:26:19.521Z,45.60
2018-05-31T10:28:47.922Z,48.12
2018-05-31T10:31:16.337Z,43.95
2018-05-31T10:33:44.784Z,44.67
2018-05-31T10:36:13.198Z,45.49
2018-05-31T10:38:41.604Z,44.38
2018-05-31T10:41:10.056Z,43.32
2018-05-31T10:43:38.469Z,45.84
2018-05-31T10:46:06.906Z,44.31
2018-05-31T10:48:35.378Z,45.56
2018-05-31T10:51:03.784Z,45.97
2018-05-31T10:53:32.204Z,45.51
2018-05-31T10:56:00.656Z,45.85
2018-05-31T10:58:29.074Z,44.57
2018-05-31T11:00:57.492Z,45.85
2018-05-31T11:03:25.955Z,47.56
2018-05-31T11:05:54.371Z,47.00
2018-05-31T11:08:22.793Z,46.06
2018-05-31T11:10:51.261Z,44.90
2018-05-31T11:13:19.676Z,45.31
2018-05-31T11:15:48.090Z,45.62
2018-05-31T11:18:16.540Z,44.14
2018-05-31T11:20:44.963Z,44.43
2018-05-31T11:23:13.371Z,42.42
2018-05-31T11:25:41.821Z,42.81
2018-05-31T11:28:10.232Z,43.01
2018-05-31T11:30:38.647Z,40.80
2018-05-31T11:33:07.110Z,41.90
2018-05-31T11:35:35.524Z,44.57
2018-05-31T11:38:03.945Z,42.63
2018-05-31T11:40:32.405Z,41.83
2018-05-31T11:43:00.809Z,45.09
2018-05-31T11:45:29.221Z,43.23
2018-05-31T11:47:57.661Z,40.84
2018-05-31T11:50:26.080Z,42.33
2018-05-31T11:52:54.502Z,43.01
2018-05-31T11:55:22.960Z,44.84
2018-05-31T11:57:51.435Z,44.36
2018-05-31T12:00:19.864Z,45.60
2018-05-31T12:02:48.332Z,45.43
2018-05-31T12:05:16.766Z,44.29
2018-05-31T12:07:45.195Z,45.43
2018-05-31T12:10:13.677Z,44.02
2018-05-31T12:12:42.093Z,44.89
2018-05-31T12:15:10.516Z,45.63
2018-05-31T12:17:39.021Z,46.33
2018-05-31T12:20:07.451Z,46.26
2018-05-31T12:22:35.879Z,45.60
2018-05-31T12:25:04.373Z,44.92
2018-05-31T12:27:32.793Z,44.69
2018-05-31T12:30:01.213Z,44.69
2018-05-31T12:32:29.684Z,44.78
2018-05-31T12:34:58.099Z,45.24
2018-05-31T12:37:26.520Z,44.75
2018-05-31T12:39:54.980Z,44.90
2018-05-31T12:42:23.409Z,44.40
2018-05-31T12:44:51.825Z,45.72
2018-05-31T12:47:20.305Z,45.96
2018-05-31T12:49:48.725Z,47.20
2018-05-31T12:52:17.177Z,45.81
2018-05-31T12:54:45.672Z,44.68
2018-05-31T12:57:14.092Z,45.28
2018-05-31T12:59:42.529Z,43.84
2018-05-31T13:02:11.012Z,47.08
2018-05-31T13:04:39.433Z,45.14
2018-05-31T13:07:07.857Z,42.74
2018-05-31T13:09:36.324Z,43.22
2018-05-31T13:12:04.787Z,42.31
2018-05-31T13:14:33.218Z,38.77
2018-05-31T13:17:01.667Z,41.15
2018-05-31T13:19:30.073Z,38.48
2018-05-31T13:21:58.511Z,40.24
2018-05-31T13:24:26.969Z,40.45
2018-05-31T13:26:55.396Z,41.63
2018-05-31T13:29:23.817Z,42.09
2018-05-31T13:31:52.283Z,42.04
2018-05-31T13:34:20.692Z,42.06
2018-05-31T13:36:49.111Z,40.98
2018-05-31T13:39:17.561Z,41.18
2018-05-31T13:41:45.989Z,40.46
2018-05-31T13:44:14.408Z,40.66
2018-05-31T13:46:42.865Z,40.13
2018-05-31T13:49:11.284Z,39.04
2018-05-31T13:51:39.701Z,40.30
2018-05-31T13:54:08.152Z,39.70
2018-05-31T13:56:36.564Z,40.74
2018-05-31T13:59:04.985Z,40.77
2018-05-31T14:01:33.685Z,39.90
2018-05-31T14:04:02.101Z,40.52
2018-05-31T14:06:30.516Z,41.10
2018-05-31T14:08:58.976Z,41.23
2018-05-31T14:11:27.392Z,41.75
2018-05-31T14:13:55.816Z,43.02
2018-05-31T14:16:24.280Z,41.70
2018-05-31T14:18:52.704Z,41.26
2018-05-31T14:21:21.130Z,43.11
2018-05-31T14:23:49.596Z,43.42
2018-05-31T14:26:18.027Z,42.81
2018-05-31T14:28:46.444Z,43.37
2018-05-31T14:31:14.920Z,43.35
2018-05-31T14:33:43.353Z,43.42
2018-05-31T14:36:11.780Z,42.58
2018-05-31T14:38:40.414Z,43.62
2018-05-31T14:41:08.839Z,44.49
2018-05-31T14:43:37.270Z,44.73
2018-05-31T14:46:05.732Z,45.74
2018-05-31T14:48:34.169Z,44.92
2018-05-31T14:51:02.595Z,46.27
2018-05-31T14:53:31.970Z,46.08
2018-05-31T14:56:00.400Z,47.01
2018-05-31T14:58:28.831Z,47.02
2018-05-31T15:00:57.305Z,46.84
2018-05-31T15:03:25.720Z,48.42
2018-05-31T15:05:54.137Z,47.01
2018-05-31T15:08:22.620Z,48.23
2018-05-31T15:10:51.045Z,49.41
2018-05-31T15:13:19.489Z,48.42
2018-05-31T15:15:47.957Z,49.10
2018-05-31T15:18:16.423Z,49.85
2018-05-31T15:20:44.872Z,49.57
2018-05-31T15:23:13.341Z,49.72
2018-05-31T15:25:41.776Z,49.02
2018-05-31T15:28:10.201Z,49.46
2018-05-31T15:30:38.681Z,48.39
2018-05-31T15:33:07.105Z,48.91
2018-05-31T15:35:35.592Z,48.56
2018-05-31T15:38:04.057Z,48.68
2018-05-31T15:40:32.484Z,49.56
2018-05-31T15:43:00.907Z,49.42
2018-05-31T15:45:29.374Z,48.44
2018-05-31T15:47:57.812Z,48.28
2018-05-31T15:50:26.245Z,49.96
2018-05-31T15:52:54.704Z,50.42
2018-05-31T15:55:23.145Z,49.50
2018-05-31T15:57:51.573Z,49.64
2018-05-31T16:00:20.067Z,49.74
2018-05-31T16:02:48.756Z,50.28
2018-05-31T16:05:17.220Z,49.17
2018-05-31T16:07:45.699Z,50.27
2018-05-31T16:10:14.140Z,51.66
2018-05-31T16:12:42.576Z,50.01
2018-05-31T16:15:11.034Z,51.68
2018-05-31T16:17:39.462Z,51.00
2018-05-31T16:20:07.917Z,49.64
2018-05-31T16:22:36.389Z,51.88
2018-05-31T16:25:04.826Z,50.61
2018-05-31T16:27:33.249Z,51.09
2018-05-31T16:30:01.720Z,50.84
2018-05-31T16:32:30.159Z,50.50
2018-05-31T16:34:58.588Z,50.26
2018-05-31T16:37:27.048Z,50.04
2018-05-31T16:39:55.476Z,50.46
2018-05-31T16:42:23.909Z,50.75
2018-05-31T16:44:52.384Z,51.29
2018-05-31T16:47:20.804Z,51.69
2018-05-31T16:49:49.256Z,52.21
2018-05-31T16:52:17.713Z,52.31
2018-05-31T16:54:46.150Z,52.20
2018-05-31T16:57:14.577Z,52.34
2018-05-31T16:59:43.040Z,52.26
2018-05-31T17:02:11.466Z,51.69
2018-05-31T17:04:39.934Z,52.10
2018-05-31T17:07:08.401Z,53.02
2018-05-31T17:09:36.813Z,53.69
2018-05-31T17:12:05.248Z,54.15
2018-05-31T17:14:33.732Z,53.20
2018-05-31T17:17:02.169Z,53.79
2018-05-31T17:19:30.591Z,54.87
2018-05-31T17:21:59.048Z,53.77
2018-05-31T17:24:27.483Z,53.97
2018-05-31T17:26:55.916Z,54.78
2018-05-31T17:29:24.385Z,54.75
2018-05-31T17:31:52.886Z,55.00
2018-05-31T17:34:21.257Z,54.79
2018-05-31T17:36:49.720Z,55.66
2018-05-31T17:39:18.144Z,55.70
2018-05-31T17:41:46.561Z,55.31
2018-05-31T17:44:15.045Z,55.80
2018-05-31T17:46:43.478Z,56.21
2018-05-31T17:49:11.925Z,56.57
2018-05-31T17:51:40.401Z,56.09
2018-05-31T17:54:08.828Z,55.93
2018-05-31T17:56:37.258Z,56.10
2018-05-31T17:59:05.737Z,55.44
2018-05-31T18:01:34.170Z,55.27
2018-05-31T18:04:02.613Z,55.11
2018-05-31T18:06:31.072Z,55.62
2018-05-31T18:08:59.500Z,55.82
2018-05-31T18:11:27.921Z,55.93
2018-05-31T18:13:56.392Z,56.20
2018-05-31T18:16:24.826Z,56.31
2018-05-31T18:18:53.257Z,56.56
2018-05-31T18:21:21.730Z,56.95
2018-05-31T18:23:50.168Z,57.70
2018-05-31T18:26:18.596Z,57.32
2018-05-31T18:28:47.061Z,57.28
2018-05-31T18:31:15.480Z,57.77
2018-05-31T18:33:43.913Z,57.77
2018-05-31T18:36:12.382Z,58.19
2018-05-31T18:38:40.814Z,58.48
2018-05-31T18:41:09.241Z,58.47
2018-05-31T18:43:37.704Z,58.19
2018-05-31T18:46:06.155Z,58.63
2018-05-31T18:48:34.587Z,58.99
2018-05-31T18:51:03.061Z,59.38
2018-05-31T18:53:31.497Z,59.67
2018-05-31T18:55:59.925Z,59.63
2018-05-31T18:58:28.393Z,59.96
2018-05-31T19:00:56.821Z,60.16
2018-05-31T19:03:25.286Z,60.28
2018-05-31T19:05:53.756Z,60.47
2018-05-31T19:08:22.197Z,60.64
2018-05-31T19:10:50.649Z,60.95
2018-05-31T19:13:24.805Z,60.67
2018-05-31T19:15:53.248Z,60.89
2018-05-31T19:18:27.379Z,61.37
2018-05-31T19:20:55.811Z,62.03
2018-05-31T19:23:24.247Z,62.47
2018-05-31T19:25:52.735Z,63.52
2018-05-31T19:28:21.181Z,64.41
2018-05-31T19:30:55.384Z,64.29
2018-05-31T19:33:23.814Z,65.20
2018-05-31T19:35:57.868Z,64.80
2018-05-31T19:38:26.296Z,64.69
2018-05-31T19:40:54.740Z,65.09
2018-05-31T19:43:29.096Z,64.87
2018-05-31T19:45:57.533Z,64.80
2018-05-31T19:48:25.961Z,64.79
2018-05-31T19:50:54.431Z,64.93
2018-05-31T19:53:28.465Z,65.17
2018-05-31T19:55:56.943Z,64.51
2018-05-31T19:58:30.843Z,65.04
2018-05-31T20:01:04.830Z,66.31
2018-05-31T20:03:33.284Z,66.15
2018-05-31T20:06:01.708Z,67.63
2018-05-31T20:08:30.171Z,67.96
2018-05-31T20:10:58.603Z,68.16
2018-05-31T20:13:27.039Z,67.40
2018-05-31T20:15:55.504Z,67.17
2018-05-31T20:18:23.928Z,66.98
2018-05-31T20:20:52.380Z,66.83
2018-05-31T20:23:20.929Z,66.67
2018-05-31T20:25:49.380Z,66.66
2018-05-31T20:28:17.817Z,67.04
2018-05-31T20:30:46.439Z,67.10
2018-05-31T20:33:14.792Z,66.87
2018-05-31T20:35:43.220Z,66.90
2018-05-31T20:38:11.684Z,66.77
2018-05-31T20:40:40.109Z,67.01
2018-05-31T20:43:08.535Z,67.66
2018-05-31T20:45:37.008Z,68.44
2018-05-31T20:48:05.444Z,69.28
2018-05-31T20:50:33.873Z,68.34
2018-05-31T20:53:02.332Z,68.11
2018-05-31T20:55:30.756Z,68.18
2018-05-31T20:57:59.176Z,69.27
2018-05-31T21:00:27.648Z,70.36
2018-05-31T21:02:56.083Z,70.10
2018-05-31T21:05:24.556Z,70.16
2018-05-31T21:07:53.020Z,70.17
2018-05-31T21:10:21.449Z,70.15
2018-05-31T21:12:49.882Z,69.77
2018-05-31T21:15:18.347Z,69.48
2018-05-31T21:17:47.063Z,69.55
2018-05-31T21:20:15.490Z,69.78
2018-05-31T21:22:43.964Z,69.80
2018-05-31T21:25:12.392Z,68.92
2018-05-31T21:27:40.826Z,69.01
2018-05-31T21:30:09.296Z,69.77
2018-05-31T21:32:37.728Z,68.99
2018-05-31T21:35:06.169Z,67.87
2018-05-31T21:37:34.633Z,69.20
2018-05-31T21:40:03.057Z,70.18
2018-05-31T21:42:31.549Z,70.07
2018-05-31T21:45:00.098Z,68.06
2018-05-31T21:47:28.516Z,70.28
2018-05-31T21:49:56.945Z,71.48
2018-05-31T21:52:25.425Z,72.54
2018-05-31T21:54:53.852Z,72.00
2018-05-31T21:57:22.274Z,73.95
2018-05-31T21:59:50.741Z,74.55
2018-05-31T22:02:19.201Z,73.99
2018-05-31T22:04:47.632Z,74.69
2018-05-31T22:07:16.111Z,75.22
2018-05-31T22:09:44.560Z,75.63
2018-05-31T22:12:13.021Z,75.66
2018-05-31T22:14:41.485Z,74.95
2018-05-31T22:17:09.917Z,74.77
2018-05-31T22:19:38.336Z,73.92
2018-05-31T22:22:06.806Z,72.75
2018-05-31T22:24:35.616Z,74.07
2018-05-31T22:27:04.075Z,73.96
2018-05-31T22:29:32.575Z,73.08
2018-05-31T22:32:01.005Z,72.68
2018-05-31T22:34:29.416Z,71.35
2018-05-31T22:36:57.904Z,72.12
2018-05-31T22:39:26.737Z,71.50
2018-05-31T22:41:55.165Z,69.87
2018-05-31T22:44:23.639Z,74.04
2018-05-31T22:46:52.072Z,75.20
2018-05-31T22:49:20.812Z,75.56
2018-05-31T22:51:49.293Z,75.68
2018-05-31T22:54:17.744Z,76.77
2018-05-31T22:56:46.186Z,76.64
2018-05-31T22:59:14.680Z,78.21
2018-05-31T23:01:43.442Z,77.54
2018-05-31T23:04:11.877Z,76.41
2018-05-31T23:06:40.381Z,76.62
2018-05-31T23:09:08.813Z,76.58
2018-05-31T23:11:37.274Z,76.20
2018-05-31T23:14:05.748Z,77.41
2018-05-31T23:16:34.193Z,76.99
2018-05-31T23:19:02.635Z,77.43
2018-05-31T23:21:31.118Z,77.26
2018-05-31T23:23:59.552Z,77.68
2018-05-31T23:26:28.017Z,79.15
2018-05-31T23:28:56.518Z,77.83
2018-05-31T23:31:24.944Z,77.14
2018-05-31T23:33:53.445Z,76.48
2018-05-31T23:36:21.902Z,76.34
2018-05-31T23:38:50.325Z,76.39
2018-05-31T23:41:18.761Z,76.57
2018-05-31T23:43:47.236Z,76.79
2018-05-31T23:46:15.665Z,76.66
2018-05-31T23:48:44.122Z,78.43
2018-05-31T23:51:12.613Z,78.52
2018-05-31T23:53:41.048Z,77.13
2018-05-31T23:56:09.532Z,78.30
2018-05-31T23:58:38.029Z,78.21
